createdAt,value
2022-08-12T00:00:02.323Z,1.67
2022-08-12T00:02:49.087Z,2.03
2022-08-12T00:05:38.742Z,1.60
2022-08-12T00:08:44.443Z,1.60
2022-08-12T00:11:30.129Z,1.88
2022-08-12T00:14:15.537Z,2.05
2022-08-12T00:17:01.746Z,1.73
2022-08-12T00:19:48.952Z,1.83
2022-08-12T00:22:34.420Z,1.80
2022-08-12T00:25:20.839Z,1.95
2022-08-12T00:28:26.370Z,1.70
2022-08-12T00:31:12.230Z,1.85
2022-08-12T00:33:57.515Z,2.00
2022-08-12T00:36:50.155Z,2.08
2022-08-12T00:39:36.641Z,1.70
2022-08-12T00:42:10.897Z,1.95
2022-08-12T00:44:44.219Z,1.90
2022-08-12T00:47:25.654Z,2.00
2022-08-12T00:49:55.739Z,2.28
2022-08-12T00:52:26.503Z,1.80
2022-08-12T00:54:57.904Z,1.88
2022-08-12T00:57:28.944Z,1.90
2022-08-12T00:59:58.922Z,1.85
2022-08-12T01:02:29.096Z,1.85
2022-08-12T01:05:17.059Z,2.00
2022-08-12T01:08:06.362Z,2.33
2022-08-12T01:10:55.705Z,1.92
2022-08-12T01:13:24.543Z,1.80
2022-08-12T01:15:54.061Z,1.90
2022-08-12T01:18:24.057Z,1.65
2022-08-12T01:21:03.992Z,2.22
2022-08-12T01:24:27.982Z,1.67
2022-08-12T01:26:54.964Z,1.73
2022-08-12T01:29:28.425Z,1.90
2022-08-12T01:32:05.217Z,2.00
2022-08-12T01:34:37.570Z,1.67
2022-08-12T01:37:08.794Z,1.90
2022-08-12T01:40:34.843Z,1.95
2022-08-12T01:42:34.432Z,1.58
2022-08-12T01:45:04.047Z,2.25
2022-08-12T01:47:43.167Z,2.15
2022-08-12T01:50:22.392Z,1.70
2022-08-12T01:52:59.143Z,1.92
2022-08-12T01:55:33.482Z,1.98
2022-08-12T01:58:29.678Z,1.77
2022-08-12T02:01:03.760Z,1.90
2022-08-12T02:04:06.197Z,2.10
2022-08-12T02:06:58.606Z,2.03
2022-08-12T02:10:00.905Z,1.85
2022-08-12T02:12:48.547Z,1.83
2022-08-12T02:15:28.232Z,1.90
2022-08-12T02:18:04.850Z,2.25
2022-08-12T02:20:51.784Z,1.90
2022-08-12T02:23:28.117Z,2.10
2022-08-12T02:26:02.405Z,1.85
2022-08-12T02:28:31.664Z,2.20
2022-08-12T02:31:05.455Z,2.10
2022-08-12T02:33:34.117Z,2.20
2022-08-12T02:36:03.858Z,2.10
2022-08-12T02:38:32.980Z,2.00
2022-08-12T02:41:04.756Z,2.10
2022-08-12T02:43:39.153Z,1.85
2022-08-12T02:46:14.785Z,2.05
2022-08-12T02:48:51.505Z,1.88
2022-08-12T02:51:23.678Z,2.15
2022-08-12T02:54:04.466Z,1.95
2022-08-12T02:56:37.658Z,1.90
2022-08-12T02:59:07.119Z,2.10
2022-08-12T03:01:47.418Z,2.15
2022-08-12T03:04:24.757Z,2.20
2022-08-12T03:07:01.278Z,2.20
2022-08-12T03:09:36.588Z,1.70
2022-08-12T03:12:23.006Z,1.75
2022-08-12T03:14:54.290Z,2.33
2022-08-12T03:17:30.840Z,2.17
2022-08-12T03:20:09.624Z,1.85
2022-08-12T03:22:41.538Z,2.40
2022-08-12T03:25:17.546Z,1.88
2022-08-12T03:27:51.758Z,2.00
2022-08-12T03:30:21.166Z,2.05
2022-08-12T03:32:52.821Z,2.10
2022-08-12T03:35:40.448Z,2.00
2022-08-12T03:38:12.415Z,1.90
2022-08-12T03:41:11.474Z,2.15
2022-08-12T03:44:05.569Z,1.90
2022-08-12T03:46:55.484Z,2.00
2022-08-12T03:49:43.525Z,2.10
2022-08-12T03:52:29.385Z,1.85
2022-08-12T03:55:14.764Z,1.98
2022-08-12T03:58:00.558Z,2.00
2022-08-12T04:00:30.460Z,2.03
2022-08-12T04:03:01.635Z,1.83
2022-08-12T04:05:54.467Z,2.00
2022-08-12T04:08:23.971Z,2.08
2022-08-12T04:11:09.877Z,2.40
2022-08-12T04:13:38.327Z,2.40
2022-08-12T04:16:08.022Z,2.08
2022-08-12T04:18:39.034Z,2.00
2022-08-12T04:21:10.064Z,1.95
2022-08-12T04:23:39.656Z,1.77
2022-08-12T04:26:08.384Z,2.50
2022-08-12T04:28:37.767Z,1.80
2022-08-12T04:31:05.991Z,2.05
2022-08-12T04:33:35.117Z,1.88
2022-08-12T04:36:03.139Z,1.77
2022-08-12T04:38:34.853Z,2.05
2022-08-12T04:41:03.457Z,1.88
2022-08-12T04:44:01.423Z,1.98
2022-08-12T04:46:23.925Z,2.20
2022-08-12T04:48:54.025Z,2.03
2022-08-12T04:51:24.223Z,2.15
2022-08-12T04:53:53.971Z,2.13
2022-08-12T04:56:22.280Z,2.17
2022-08-12T04:58:52.695Z,2.30
2022-08-12T05:01:21.782Z,2.15
2022-08-12T05:03:51.611Z,2.20
2022-08-12T05:06:26.783Z,2.25
2022-08-12T05:08:57.346Z,2.03
2022-08-12T05:11:26.453Z,2.75
2022-08-12T05:14:03.018Z,2.17
2022-08-12T05:16:34.240Z,2.13
2022-08-12T05:19:04.996Z,2.00
2022-08-12T05:21:34.048Z,2.10
2022-08-12T05:24:03.530Z,2.05
2022-08-12T05:26:31.728Z,1.80
2022-08-12T05:28:59.769Z,1.85
2022-08-12T05:31:47.440Z,2.28
2022-08-12T05:34:16.554Z,2.00
2022-08-12T05:36:45.106Z,1.90
2022-08-12T05:39:14.752Z,2.28
2022-08-12T05:41:42.861Z,2.20
2022-08-12T05:44:13.821Z,1.77
2022-08-12T05:46:42.254Z,2.17
2022-08-12T05:49:10.382Z,2.17
2022-08-12T05:51:41.828Z,2.17
2022-08-12T05:54:11.214Z,2.47
2022-08-12T05:56:41.925Z,2.00
2022-08-12T05:59:12.409Z,2.30
2022-08-12T06:02:11.641Z,2.13
2022-08-12T06:04:32.564Z,2.15
2022-08-12T06:07:01.859Z,2.17
2022-08-12T06:09:31.176Z,2.10
2022-08-12T06:12:04.782Z,2.10
2022-08-12T06:14:38.794Z,2.10
2022-08-12T06:17:09.178Z,1.85
2022-08-12T06:20:26.906Z,2.35
2022-08-12T06:22:26.820Z,2.20
2022-08-12T06:24:55.401Z,2.35
2022-08-12T06:27:24.825Z,2.33
2022-08-12T06:30:08.283Z,2.40
2022-08-12T06:32:47.485Z,1.75
2022-08-12T06:35:23.674Z,2.50
2022-08-12T06:37:57.599Z,1.92
2022-08-12T06:40:40.579Z,2.33
2022-08-12T06:43:10.118Z,2.75
2022-08-12T06:45:46.685Z,1.80
2022-08-12T06:48:15.772Z,1.77
2022-08-12T06:50:44.542Z,2.28
2022-08-12T06:53:13.114Z,1.88
2022-08-12T06:55:58.191Z,1.88
2022-08-12T06:58:29.480Z,2.10
2022-08-12T07:00:58.866Z,1.75
2022-08-12T07:03:29.044Z,1.50
2022-08-12T07:05:58.353Z,2.00
2022-08-12T07:08:27.461Z,1.90
2022-08-12T07:10:59.498Z,1.90
2022-08-12T07:13:35.950Z,1.70
2022-08-12T07:16:24.468Z,1.70
2022-08-12T07:18:53.749Z,1.63
2022-08-12T07:21:21.889Z,1.50
2022-08-12T07:23:50.483Z,1.98
2022-08-12T07:26:20.047Z,1.77
2022-08-12T07:28:50.422Z,1.80
2022-08-12T07:31:18.508Z,1.90
2022-08-12T07:33:46.579Z,2.10
2022-08-12T07:36:15.841Z,1.77
2022-08-12T07:38:48.351Z,1.52
2022-08-12T07:41:19.511Z,1.45
2022-08-12T07:43:51.294Z,1.83
2022-08-12T07:46:21.779Z,1.80
2022-08-12T07:48:52.178Z,1.42
2022-08-12T07:51:24.938Z,1.85
2022-08-12T07:54:01.191Z,1.80
2022-08-12T07:56:32.442Z,1.67
2022-08-12T07:59:03.439Z,1.73
2022-08-12T08:01:33.133Z,2.67
2022-08-12T08:04:19.751Z,1.70
2022-08-12T08:06:48.907Z,1.67
2022-08-12T08:09:19.435Z,1.40
2022-08-12T08:12:05.110Z,1.30
2022-08-12T08:14:35.118Z,1.67
2022-08-12T08:17:06.600Z,1.55
2022-08-12T08:20:02.011Z,1.60
2022-08-12T08:22:40.613Z,1.42
2022-08-12T08:25:34.826Z,1.27
2022-08-12T08:28:01.078Z,1.30
2022-08-12T08:30:32.261Z,1.80
2022-08-12T08:33:00.971Z,1.67
2022-08-12T08:35:36.824Z,1.40
2022-08-12T08:38:19.816Z,1.73
2022-08-12T08:42:16.727Z,1.20
2022-08-12T08:44:07.833Z,1.40
2022-08-12T08:46:38.281Z,1.35
2022-08-12T08:49:07.375Z,1.08
2022-08-12T08:51:35.663Z,1.40
2022-08-12T08:54:04.764Z,1.30
2022-08-12T08:56:32.895Z,1.13
2022-08-12T08:59:01.600Z,1.42
2022-08-12T09:01:38.033Z,1.30
2022-08-12T09:05:08.785Z,1.08
2022-08-12T09:07:16.950Z,1.30
2022-08-12T09:12:54.393Z,1.33
2022-08-12T09:15:35.558Z,1.48
2022-08-12T09:18:05.880Z,1.10
2022-08-12T09:20:40.334Z,1.13
2022-08-12T09:26:04.314Z,1.30
2022-08-12T09:28:37.095Z,1.20
2022-08-12T09:32:04.738Z,1.23
2022-08-12T09:34:26.426Z,1.20
2022-08-12T09:36:58.248Z,1.38
2022-08-12T09:40:05.031Z,1.30
2022-08-12T09:42:43.423Z,1.30
2022-08-12T09:45:23.415Z,1.40
2022-08-12T09:47:58.904Z,1.25
2022-08-12T09:50:28.745Z,1.42
2022-08-12T09:53:15.598Z,1.40
2022-08-12T09:56:07.090Z,1.38
2022-08-12T09:58:57.854Z,1.17
2022-08-12T10:01:25.853Z,1.20
2022-08-12T10:04:04.958Z,1.23
2022-08-12T10:06:36.208Z,1.10
2022-08-12T10:09:08.664Z,0.98
2022-08-12T10:12:11.983Z,1.00
2022-08-12T10:14:50.430Z,1.20
2022-08-12T10:17:21.619Z,1.30
2022-08-12T10:19:53.215Z,1.25
2022-08-12T10:22:36.759Z,1.30
2022-08-12T10:26:34.269Z,1.10
2022-08-12T10:28:36.440Z,1.20
2022-08-12T10:31:16.237Z,1.48
2022-08-12T10:34:05.185Z,1.10
2022-08-12T10:36:39.978Z,1.08
2022-08-12T10:40:01.440Z,1.20
2022-08-12T10:42:29.126Z,1.20
2022-08-12T10:45:19.285Z,1.13
2022-08-12T10:48:07.180Z,1.23
2022-08-12T10:51:01.792Z,1.10
2022-08-12T10:53:45.402Z,1.10
2022-08-12T10:56:15.399Z,1.20
2022-08-12T10:58:47.138Z,1.10
2022-08-12T11:01:48.857Z,1.30
2022-08-12T11:04:35.879Z,1.15
2022-08-12T11:07:06.905Z,1.05
2022-08-12T11:10:00.965Z,1.15
2022-08-12T11:12:55.408Z,1.00
2022-08-12T11:15:33.187Z,0.85
2022-08-12T11:18:17.981Z,1.20
2022-08-12T11:20:48.865Z,1.10
2022-08-12T11:23:25.555Z,0.88
2022-08-12T11:26:06.709Z,1.30
2022-08-12T11:28:37.020Z,1.02
2022-08-12T11:31:10.054Z,1.15
2022-08-12T11:34:04.319Z,1.30
2022-08-12T11:36:30.630Z,1.45
2022-08-12T11:39:04.463Z,1.20
2022-08-12T11:41:34.724Z,1.40
2022-08-12T11:44:35.985Z,1.30
2022-08-12T11:46:54.899Z,1.10
2022-08-12T11:49:31.827Z,1.10
2022-08-12T11:52:02.002Z,1.10
2022-08-12T11:54:30.535Z,1.45
2022-08-12T11:57:00.561Z,1.00
2022-08-12T12:02:21.848Z,1.00
2022-08-12T12:04:52.719Z,1.10
2022-08-12T12:07:33.706Z,1.13
2022-08-12T12:10:13.780Z,1.00
2022-08-12T12:12:49.532Z,1.00
2022-08-12T12:15:25.391Z,1.00
2022-08-12T12:18:08.801Z,1.10
2022-08-12T12:20:41.199Z,1.10
2022-08-12T12:23:28.825Z,1.33
2022-08-12T12:25:59.683Z,1.02
2022-08-12T12:28:39.457Z,1.00
2022-08-12T12:31:15.183Z,1.20
2022-08-12T12:33:58.898Z,1.20
2022-08-12T12:36:29.783Z,1.00
2022-08-12T12:39:00.269Z,0.82
2022-08-12T12:42:41.706Z,1.00
2022-08-12T12:44:26.154Z,1.20
2022-08-12T12:47:28.739Z,1.25
2022-08-12T12:49:55.858Z,1.05
2022-08-12T12:52:27.101Z,0.85
2022-08-12T12:54:58.928Z,1.10
2022-08-12T12:57:36.442Z,1.00
2022-08-12T13:00:16.806Z,1.15
2022-08-12T13:02:52.957Z,0.80
2022-08-12T13:05:27.836Z,0.70
2022-08-12T13:08:01.121Z,0.80
2022-08-12T13:10:36.893Z,0.90
2022-08-12T13:14:06.523Z,1.10
2022-08-12T13:15:59.369Z,0.95
2022-08-12T13:18:31.525Z,1.00
2022-08-12T13:21:02.280Z,0.80
2022-08-12T13:23:37.029Z,0.80
2022-08-12T13:26:14.419Z,0.98
2022-08-12T13:28:53.142Z,1.00
2022-08-12T13:31:25.220Z,0.90
2022-08-12T13:34:33.152Z,1.58
2022-08-12T13:36:45.464Z,1.20
2022-08-12T13:39:16.333Z,0.80
2022-08-12T13:41:44.582Z,0.80
2022-08-12T13:44:13.466Z,0.98
2022-08-12T13:46:42.218Z,0.73
2022-08-12T13:49:17.447Z,0.98
2022-08-12T13:52:03.294Z,1.25
2022-08-12T13:54:32.137Z,0.73
2022-08-12T13:57:01.423Z,0.75
2022-08-12T13:59:48.690Z,0.60
2022-08-12T14:02:22.591Z,0.70
2022-08-12T14:04:56.342Z,0.70
2022-08-12T14:07:27.591Z,0.50
2022-08-12T14:10:16.479Z,0.70
2022-08-12T14:12:54.698Z,0.77
2022-08-12T14:15:34.948Z,0.70
2022-08-12T14:18:23.906Z,0.70
2022-08-12T14:20:58.125Z,0.70
2022-08-12T14:24:00.926Z,0.50
2022-08-12T14:26:24.868Z,0.70
2022-08-12T14:28:57.735Z,0.70
2022-08-12T14:31:32.054Z,0.60
2022-08-12T14:34:05.050Z,0.80
2022-08-12T14:36:33.338Z,0.70
2022-08-12T14:39:05.386Z,0.70
2022-08-12T14:41:37.217Z,0.73
2022-08-12T14:45:00.103Z,0.70
2022-08-12T14:47:08.014Z,0.70
2022-08-12T14:50:34.275Z,0.80
2022-08-12T14:53:11.577Z,0.60
2022-08-12T14:58:04.339Z,0.70
2022-08-12T15:00:53.508Z,0.60
2022-08-12T15:03:46.747Z,0.60
2022-08-12T15:06:39.824Z,0.60
2022-08-12T15:09:12.098Z,0.40
2022-08-12T15:11:55.802Z,0.63
2022-08-12T15:14:30.793Z,0.63
2022-08-12T15:17:00.557Z,0.60
2022-08-12T15:20:31.259Z,0.60
2022-08-12T15:22:37.556Z,0.60
2022-08-12T15:25:07.125Z,0.75
2022-08-12T15:28:05.401Z,0.70
2022-08-12T15:30:33.832Z,0.63
2022-08-12T15:33:12.271Z,0.82
2022-08-12T15:35:52.764Z,0.50
2022-08-12T15:38:25.320Z,0.63
2022-08-12T15:40:54.643Z,0.60
2022-08-12T15:43:52.092Z,0.70
2022-08-12T15:46:14.866Z,0.60
2022-08-12T15:48:47.078Z,0.70
2022-08-12T15:51:59.511Z,0.60
2022-08-12T15:54:30.720Z,0.57
2022-08-12T15:57:08.362Z,0.70
2022-08-12T15:59:51.281Z,0.70
2022-08-12T16:02:29.950Z,0.70
2022-08-12T16:04:58.567Z,1.08
2022-08-12T16:07:31.217Z,0.93
2022-08-12T16:10:06.378Z,0.77
2022-08-12T16:12:42.061Z,0.70
2022-08-12T16:15:15.886Z,0.75
2022-08-12T16:18:18.615Z,0.57
2022-08-12T16:20:38.543Z,0.60
2022-08-12T16:23:26.310Z,0.45
2022-08-12T16:26:06.221Z,0.75
2022-08-12T16:28:42.455Z,0.82
2022-08-12T16:31:22.559Z,0.70
2022-08-12T16:33:59.263Z,0.88
2022-08-12T16:36:29.787Z,0.77
2022-08-12T16:39:01.287Z,0.50
2022-08-12T16:41:39.598Z,0.80
2022-08-12T16:44:08.839Z,0.60
2022-08-12T16:46:38.950Z,0.80
2022-08-12T16:49:13.944Z,0.60
2022-08-12T16:51:46.542Z,0.70
2022-08-12T16:54:16.545Z,0.85
2022-08-12T16:56:54.613Z,0.80
2022-08-12T16:59:30.634Z,0.80
2022-08-12T17:02:18.027Z,0.90
2022-08-12T17:05:05.284Z,0.65
2022-08-12T17:07:43.763Z,0.80
2022-08-12T17:10:18.600Z,1.13
2022-08-12T17:13:09.391Z,0.80
2022-08-12T17:15:57.453Z,0.82
2022-08-12T17:18:43.027Z,0.70
2022-08-12T17:21:19.641Z,0.90
2022-08-12T17:23:53.048Z,0.80
2022-08-12T17:26:28.495Z,0.80
2022-08-12T17:29:00.821Z,0.70
2022-08-12T17:32:00.266Z,0.73
2022-08-12T17:34:33.811Z,0.68
2022-08-12T17:37:05.083Z,0.70
2022-08-12T17:40:06.361Z,0.93
2022-08-12T17:42:32.940Z,0.85
2022-08-12T17:45:18.387Z,0.63
2022-08-12T17:48:01.886Z,0.70
2022-08-12T17:50:38.238Z,0.75
2022-08-12T17:53:08.066Z,0.60
2022-08-12T17:55:47.398Z,0.68
2022-08-12T17:58:18.469Z,0.80
2022-08-12T18:00:51.529Z,0.82
2022-08-12T18:04:04.557Z,1.00
2022-08-12T18:06:14.580Z,1.30
2022-08-12T18:08:54.545Z,1.83
2022-08-12T18:12:04.426Z,2.50
2022-08-12T18:14:30.075Z,1.98
2022-08-12T18:17:01.064Z,2.10
2022-08-12T18:20:04.062Z,1.50
2022-08-12T18:22:22.026Z,1.30
2022-08-12T18:25:02.256Z,0.98
2022-08-12T18:27:44.493Z,1.00
2022-08-12T18:30:29.534Z,1.00
2022-08-12T18:33:04.595Z,0.90
2022-08-12T18:35:46.408Z,1.55
2022-08-12T18:38:22.606Z,1.88
2022-08-12T18:41:11.148Z,5.03
2022-08-12T18:44:00.191Z,4.13
2022-08-12T18:46:37.467Z,3.00
2022-08-12T18:49:19.076Z,2.55
2022-08-12T18:51:54.881Z,3.00
2022-08-12T18:54:27.698Z,2.72
2022-08-12T18:56:59.365Z,2.83
2022-08-12T19:00:01.421Z,2.72
2022-08-12T19:02:22.631Z,2.53
2022-08-12T19:04:53.859Z,2.40
2022-08-12T19:07:24.383Z,2.10
2022-08-12T19:09:58.969Z,2.08
2022-08-12T19:12:57.500Z,2.25
2022-08-12T19:15:29.925Z,2.00
2022-08-12T19:18:02.430Z,2.13
2022-08-12T19:20:32.873Z,1.83
2022-08-12T19:23:07.992Z,2.00
2022-08-12T19:26:00.401Z,2.20
2022-08-12T19:28:35.214Z,2.30
2022-08-12T19:31:55.415Z,2.03
2022-08-12T19:35:06.671Z,2.05
2022-08-12T19:37:20.183Z,2.35
2022-08-12T19:40:09.841Z,1.88
2022-08-12T19:42:42.987Z,2.10
2022-08-12T19:45:15.866Z,2.25
2022-08-12T19:47:47.009Z,2.00
2022-08-12T19:50:20.181Z,2.30
2022-08-12T19:52:52.350Z,2.53
2022-08-12T19:55:23.403Z,2.17
2022-08-12T19:58:01.441Z,2.33
2022-08-12T20:00:35.350Z,2.20
2022-08-12T20:03:05.650Z,2.15
2022-08-12T20:06:04.989Z,2.28
2022-08-12T20:08:31.597Z,2.47
2022-08-12T20:12:13.459Z,1.67
2022-08-12T20:14:01.401Z,1.70
2022-08-12T20:16:57.870Z,1.73
2022-08-12T20:19:52.237Z,1.70
2022-08-12T20:22:23.355Z,1.45
2022-08-12T20:24:55.246Z,1.67
2022-08-12T20:27:29.483Z,1.42
2022-08-12T20:30:15.202Z,1.63
2022-08-12T20:32:53.890Z,1.30
2022-08-12T20:35:24.620Z,1.70
2022-08-12T20:38:04.828Z,1.80
2022-08-12T20:40:38.205Z,1.50
2022-08-12T20:43:06.873Z,1.42
2022-08-12T20:45:50.763Z,1.83
2022-08-12T20:48:25.348Z,1.52
2022-08-12T20:50:56.944Z,1.70
2022-08-12T20:53:32.881Z,1.42
2022-08-12T20:56:22.071Z,1.40
2022-08-12T20:59:01.070Z,1.42
2022-08-12T21:01:46.094Z,1.50
2022-08-12T21:04:34.878Z,1.40
2022-08-12T21:07:09.443Z,1.60
2022-08-12T21:09:41.986Z,1.50
2022-08-12T21:12:27.676Z,1.23
2022-08-12T21:15:17.571Z,1.23
2022-08-12T21:18:00.599Z,1.50
2022-08-12T21:20:37.974Z,1.08
2022-08-12T21:23:06.559Z,1.25
2022-08-12T21:25:44.463Z,1.50
2022-08-12T21:28:14.633Z,1.38
2022-08-12T21:31:11.170Z,1.40
2022-08-12T21:33:45.881Z,1.60
2022-08-12T21:36:22.791Z,1.40
2022-08-12T21:39:20.365Z,1.52
2022-08-12T21:41:51.583Z,1.65
2022-08-12T21:44:24.555Z,1.30
2022-08-12T21:47:21.037Z,1.60
2022-08-12T21:50:03.269Z,1.38
2022-08-12T21:52:36.497Z,2.05
2022-08-12T21:55:08.290Z,1.48
2022-08-12T21:57:50.502Z,1.63
2022-08-12T22:00:20.083Z,1.50
2022-08-12T22:03:05.542Z,1.35
2022-08-12T22:05:55.184Z,1.30
2022-08-12T22:08:26.147Z,1.30
2022-08-12T22:10:56.487Z,1.65
2022-08-12T22:14:07.805Z,1.40
2022-08-12T22:16:14.879Z,1.30
2022-08-12T22:18:50.267Z,1.33
2022-08-12T22:21:24.685Z,1.20
2022-08-12T22:24:04.433Z,1.52
2022-08-12T22:26:37.496Z,1.40
2022-08-12T22:29:27.386Z,1.30
2022-08-12T22:31:56.153Z,1.35
2022-08-12T22:34:33.225Z,1.40
2022-08-12T22:39:43.849Z,1.40
2022-08-12T22:42:31.479Z,1.30
2022-08-12T22:45:23.373Z,1.55
2022-08-12T22:47:55.145Z,1.52
2022-08-12T22:50:26.954Z,1.30
2022-08-12T22:53:15.449Z,1.60
2022-08-12T22:56:00.474Z,1.05
2022-08-12T22:58:41.151Z,0.98
2022-08-12T23:01:13.655Z,1.23
2022-08-12T23:03:49.191Z,1.35
2022-08-12T23:06:21.627Z,1.15
2022-08-12T23:08:49.946Z,1.35
2022-08-12T23:11:23.370Z,1.30
2022-08-12T23:13:56.247Z,1.30
2022-08-12T23:16:31.140Z,1.27
2022-08-12T23:19:10.026Z,1.20
2022-08-12T23:22:06.225Z,1.20
2022-08-12T23:24:55.789Z,1.08
2022-08-12T23:27:51.159Z,1.20
2022-08-12T23:30:25.127Z,1.20
2022-08-12T23:33:00.719Z,1.20
2022-08-12T23:35:45.629Z,1.27
2022-08-12T23:38:31.096Z,1.42
2022-08-12T23:41:01.387Z,1.30
2022-08-12T23:43:39.052Z,1.23
2022-08-12T23:46:10.046Z,1.10
2022-08-12T23:48:38.767Z,1.30
2022-08-12T23:51:22.040Z,1.10
2022-08-12T23:53:54.842Z,1.00
2022-08-12T23:56:24.697Z,1.00
2022-08-12T23:58:58.639Z,1.45
